Urbancrest, Ohio
Current Conditions -  °F | °C
As of 9:35 PM on Saturday 22 Nov 2014 (Local Time) from KTZR Reporting Station
Broken Clouds Broken Clouds  
Wind Chill: 43°   Ceiling: 11000
Heat Index: 48°   Visibility: 10mi
Dew Point: 36°   Wind: 10mph
Humidity: 63%   Direction: 190°S
Pressure: 30.08"   Gusts: NA
Location:  39.8683°N, 83.1183°W
Report Text: KTZR 230235Z AUTO 19009KT 10SM SCT060 SCT080 BKN110 09/02 A3008 RMK AO2 T00870020
Loading
Personal Weather Stations






























Interactive Weather Map New forecast layout! Learn more

10-Day Weather Forecast

Advertisements
Track Severe Weather on mobile